sensor_id;sensor_type;location;lat;lon;timestamp;P1;durP1;ratioP1;P2;durP2;ratioP2
16063;SDS011;8136;53.172;8.256;2024-03-23T00:55:20;13.90;;;3.27;;
16063;SDS011;8136;53.172;8.256;2024-03-23T00:57:47;11.37;;;3.20;;
16063;SDS011;8136;53.172;8.256;2024-03-23T01:00:13;6.43;;;2.70;;
16063;SDS011;8136;53.172;8.256;2024-03-23T01:02:41;13.67;;;2.70;;
16063;SDS011;8136;53.172;8.256;2024-03-23T01:05:07;13.13;;;3.13;;
16063;SDS011;8136;53.172;8.256;2024-03-23T01:07:34;12.83;;;3.17;;
16063;SDS011;8136;53.172;8.256;2024-03-23T01:10:00;12.60;;;2.97;;
16063;SDS011;8136;53.172;8.256;2024-03-23T01:12:28;12.70;;;3.20;;
16063;SDS011;8136;53.172;8.256;2024-03-23T01:14:54;15.17;;;3.73;;
16063;SDS011;8136;53.172;8.256;2024-03-23T01:17:21;11.60;;;3.10;;
16063;SDS011;8136;53.172;8.256;2024-03-23T01:19:47;12.20;;;3.20;;
16063;SDS011;8136;53.172;8.256;2024-03-23T01:22:14;10.60;;;2.73;;
16063;SDS011;8136;53.172;8.256;2024-03-23T01:24:40;10.63;;;3.23;;
16063;SDS011;8136;53.172;8.256;2024-03-23T01:27:08;12.93;;;2.87;;
16063;SDS011;8136;53.172;8.256;2024-03-23T01:29:35;13.60;;;3.10;;
16063;SDS011;8136;53.172;8.256;2024-03-23T01:32:02;8.47;;;2.90;;
16063;SDS011;8136;53.172;8.256;2024-03-23T01:34:28;12.90;;;3.80;;
16063;SDS011;8136;53.172;8.256;2024-03-23T01:36:55;13.60;;;3.73;;
16063;SDS011;8136;53.172;8.256;2024-03-23T01:39:21;16.23;;;4.17;;
16063;SDS011;8136;53.172;8.256;2024-03-23T01:41:48;14.30;;;3.57;;
16063;SDS011;8136;53.172;8.256;2024-03-23T01:44:13;17.93;;;3.93;;
16063;SDS011;8136;53.172;8.256;2024-03-23T01:46:42;13.30;;;3.57;;
16063;SDS011;8136;53.172;8.256;2024-03-23T01:49:09;17.90;;;3.57;;
16063;SDS011;8136;53.172;8.256;2024-03-23T01:51:36;18.07;;;3.63;;
16063;SDS011;8136;53.172;8.256;2024-03-23T01:54:03;10.73;;;3.10;;
16063;SDS011;8136;53.172;8.256;2024-03-23T01:56:32;13.70;;;3.63;;
16063;SDS011;8136;53.172;8.256;2024-03-23T01:59:00;14.23;;;2.83;;
16063;SDS011;8136;53.172;8.256;2024-03-23T02:01:27;12.57;;;2.90;;
16063;SDS011;8136;53.172;8.256;2024-03-23T02:03:54;17.37;;;4.07;;
16063;SDS011;8136;53.172;8.256;2024-03-23T02:06:21;16.43;;;3.77;;
16063;SDS011;8136;53.172;8.256;2024-03-23T02:08:47;13.70;;;3.00;;
16063;SDS011;8136;53.172;8.256;2024-03-23T02:11:14;15.40;;;3.73;;
16063;SDS011;8136;53.172;8.256;2024-03-23T02:13:40;15.80;;;3.63;;
16063;SDS011;8136;53.172;8.256;2024-03-23T02:16:07;14.03;;;3.67;;
16063;SDS011;8136;53.172;8.256;2024-03-23T02:18:33;14.60;;;3.67;;
16063;SDS011;8136;53.172;8.256;2024-03-23T02:21:02;11.20;;;3.27;;
16063;SDS011;8136;53.172;8.256;2024-03-23T02:23:30;20.80;;;4.07;;
16063;SDS011;8136;53.172;8.256;2024-03-23T02:25:57;12.33;;;3.50;;
16063;SDS011;8136;53.172;8.256;2024-03-23T02:28:23;10.30;;;3.40;;
16063;SDS011;8136;53.172;8.256;2024-03-23T02:30:50;19.17;;;3.93;;
16063;SDS011;8136;53.172;8.256;2024-03-23T02:33:15;16.00;;;3.43;;
16063;SDS011;8136;53.172;8.256;2024-03-23T02:35:43;7.27;;;3.23;;
16063;SDS011;8136;53.172;8.256;2024-03-23T02:38:11;9.70;;;3.27;;
16063;SDS011;8136;53.172;8.256;2024-03-23T02:40:39;17.10;;;3.77;;
16063;SDS011;8136;53.172;8.256;2024-03-23T02:43:05;18.00;;;4.30;;
16063;SDS011;8136;53.172;8.256;2024-03-23T02:45:31;15.83;;;3.23;;
16063;SDS011;8136;53.172;8.256;2024-03-23T02:47:57;13.67;;;3.17;;
16063;SDS011;8136;53.172;8.256;2024-03-23T02:50:24;15.00;;;3.27;;
16063;SDS011;8136;53.172;8.256;2024-03-23T02:52:50;13.77;;;3.40;;
16063;SDS011;8136;53.172;8.256;2024-03-23T02:55:17;12.23;;;3.30;;
16063;SDS011;8136;53.172;8.256;2024-03-23T02:57:47;12.13;;;3.20;;
16063;SDS011;8136;53.172;8.256;2024-03-23T03:00:14;10.77;;;3.10;;
16063;SDS011;8136;53.172;8.256;2024-03-23T03:02:40;14.00;;;3.80;;
16063;SDS011;8136;53.172;8.256;2024-03-23T03:05:07;15.00;;;3.87;;
16063;SDS011;8136;53.172;8.256;2024-03-23T03:07:34;16.73;;;3.43;;
16063;SDS011;8136;53.172;8.256;2024-03-23T03:10:03;10.10;;;3.30;;
16063;SDS011;8136;53.172;8.256;2024-03-23T03:12:30;13.40;;;3.47;;
16063;SDS011;8136;53.172;8.256;2024-03-23T03:14:58;18.67;;;3.97;;
16063;SDS011;8136;53.172;8.256;2024-03-23T03:17:25;15.47;;;3.87;;
16063;SDS011;8136;53.172;8.256;2024-03-23T03:19:52;12.50;;;3.57;;
16063;SDS011;8136;53.172;8.256;2024-03-23T03:22:20;12.03;;;3.23;;
16063;SDS011;8136;53.172;8.256;2024-03-23T03:24:47;18.33;;;3.90;;
16063;SDS011;8136;53.172;8.256;2024-03-23T03:27:13;12.57;;;3.50;;
16063;SDS011;8136;53.172;8.256;2024-03-23T03:29:40;18.17;;;4.00;;
16063;SDS011;8136;53.172;8.256;2024-03-23T03:32:08;19.40;;;3.70;;
16063;SDS011;8136;53.172;8.256;2024-03-23T03:34:35;15.73;;;3.67;;
16063;SDS011;8136;53.172;8.256;2024-03-23T03:37:00;15.93;;;3.77;;
16063;SDS011;8136;53.172;8.256;2024-03-23T03:39:27;14.37;;;3.73;;
16063;SDS011;8136;53.172;8.256;2024-03-23T03:41:53;18.10;;;4.10;;
16063;SDS011;8136;53.172;8.256;2024-03-23T03:44:20;11.33;;;3.40;;
16063;SDS011;8136;53.172;8.256;2024-03-23T03:46:46;11.53;;;3.37;;
16063;SDS011;8136;53.172;8.256;2024-03-23T03:49:15;15.70;;;4.07;;
16063;SDS011;8136;53.172;8.256;2024-03-23T03:51:41;12.70;;;3.57;;
16063;SDS011;8136;53.172;8.256;2024-03-23T03:54:08;13.17;;;3.30;;
16063;SDS011;8136;53.172;8.256;2024-03-23T03:56:33;19.10;;;4.07;;
16063;SDS011;8136;53.172;8.256;2024-03-23T03:59:00;12.47;;;3.50;;
16063;SDS011;8136;53.172;8.256;2024-03-23T04:01:26;15.17;;;3.60;;
16063;SDS011;8136;53.172;8.256;2024-03-23T04:03:53;14.27;;;3.40;;
16063;SDS011;8136;53.172;8.256;2024-03-23T04:06:20;13.47;;;3.73;;
16063;SDS011;8136;53.172;8.256;2024-03-23T04:08:47;12.47;;;3.73;;
16063;SDS011;8136;53.172;8.256;2024-03-23T04:11:13;13.03;;;3.63;;
16063;SDS011;8136;53.172;8.256;2024-03-23T04:13:40;15.70;;;3.87;;
16063;SDS011;8136;53.172;8.256;2024-03-23T04:16:06;13.77;;;3.67;;
16063;SDS011;8136;53.172;8.256;2024-03-23T04:18:34;17.43;;;4.30;;
16063;SDS011;8136;53.172;8.256;2024-03-23T04:21:00;12.53;;;3.50;;
16063;SDS011;8136;53.172;8.256;2024-03-23T04:26:53;13.80;;;4.03;;
16063;SDS011;8136;53.172;8.256;2024-03-23T04:29:20;20.30;;;4.27;;
16063;SDS011;8136;53.172;8.256;2024-03-23T04:31:45;11.93;;;3.57;;
16063;SDS011;8136;53.172;8.256;2024-03-23T04:34:13;13.20;;;3.10;;
16063;SDS011;8136;53.172;8.256;2024-03-23T04:36:39;12.57;;;3.67;;
16063;SDS011;8136;53.172;8.256;2024-03-23T04:39:06;13.73;;;3.80;;
16063;SDS011;8136;53.172;8.256;2024-03-23T04:41:34;15.20;;;3.73;;
16063;SDS011;8136;53.172;8.256;2024-03-23T04:44:02;16.67;;;3.87;;
16063;SDS011;8136;53.172;8.256;2024-03-23T04:46:29;18.30;;;3.80;;
16063;SDS011;8136;53.172;8.256;2024-03-23T04:48:56;23.13;;;3.67;;
16063;SDS011;8136;53.172;8.256;2024-03-23T04:51:23;15.30;;;3.93;;
16063;SDS011;8136;53.172;8.256;2024-03-23T04:53:50;13.37;;;3.70;;
16063;SDS011;8136;53.172;8.256;2024-03-23T04:56:17;17.77;;;4.43;;
16063;SDS011;8136;53.172;8.256;2024-03-23T04:58:43;10.83;;;3.53;;
16063;SDS011;8136;53.172;8.256;2024-03-23T05:01:11;13.07;;;3.27;;
16063;SDS011;8136;53.172;8.256;2024-03-23T05:03:37;20.63;;;4.20;;
16063;SDS011;8136;53.172;8.256;2024-03-23T05:06:04;17.23;;;4.03;;
16063;SDS011;8136;53.172;8.256;2024-03-23T05:08:30;17.13;;;3.47;;
16063;SDS011;8136;53.172;8.256;2024-03-23T05:10:57;14.07;;;3.77;;
16063;SDS011;8136;53.172;8.256;2024-03-23T05:13:23;14.93;;;3.50;;
16063;SDS011;8136;53.172;8.256;2024-03-23T05:15:51;13.23;;;3.13;;
16063;SDS011;8136;53.172;8.256;2024-03-23T05:18:19;18.20;;;4.23;;
16063;SDS011;8136;53.172;8.256;2024-03-23T05:20:46;12.90;;;3.90;;
16063;SDS011;8136;53.172;8.256;2024-03-23T05:23:12;18.53;;;3.63;;
16063;SDS011;8136;53.172;8.256;2024-03-23T05:25:38;18.43;;;3.97;;
16063;SDS011;8136;53.172;8.256;2024-03-23T05:28:04;18.50;;;3.73;;
16063;SDS011;8136;53.172;8.256;2024-03-23T05:30:31;20.00;;;3.77;;
16063;SDS011;8136;53.172;8.256;2024-03-23T05:32:57;15.57;;;3.57;;
16063;SDS011;8136;53.172;8.256;2024-03-23T05:35:26;12.80;;;3.80;;
16063;SDS011;8136;53.172;8.256;2024-03-23T05:37:51;15.80;;;4.03;;
16063;SDS011;8136;53.172;8.256;2024-03-23T05:40:18;10.47;;;3.73;;
16063;SDS011;8136;53.172;8.256;2024-03-23T05:42:44;19.97;;;4.00;;
16063;SDS011;8136;53.172;8.256;2024-03-23T05:45:11;15.60;;;3.47;;
16063;SDS011;8136;53.172;8.256;2024-03-23T05:47:37;14.83;;;3.90;;
16063;SDS011;8136;53.172;8.256;2024-03-23T05:50:04;11.30;;;3.23;;
16063;SDS011;8136;53.172;8.256;2024-03-23T05:52:32;11.07;;;3.70;;
16063;SDS011;8136;53.172;8.256;2024-03-23T05:54:59;13.43;;;4.10;;
16063;SDS011;8136;53.172;8.256;2024-03-23T05:57:25;14.90;;;3.87;;
16063;SDS011;8136;53.172;8.256;2024-03-23T05:59:52;19.70;;;4.10;;
16063;SDS011;8136;53.172;8.256;2024-03-23T06:02:18;10.33;;;3.53;;
16063;SDS011;8136;53.172;8.256;2024-03-23T06:04:45;15.43;;;4.17;;
16063;SDS011;8136;53.172;8.256;2024-03-23T06:07:11;12.43;;;4.10;;
16063;SDS011;8136;53.172;8.256;2024-03-23T06:09:40;17.60;;;3.83;;
16063;SDS011;8136;53.172;8.256;2024-03-23T06:12:06;15.37;;;3.67;;
16063;SDS011;8136;53.172;8.256;2024-03-23T06:14:33;11.90;;;3.83;;
16063;SDS011;8136;53.172;8.256;2024-03-23T06:16:59;15.20;;;3.93;;
16063;SDS011;8136;53.172;8.256;2024-03-23T06:19:27;20.13;;;4.10;;
16063;SDS011;8136;53.172;8.256;2024-03-23T06:21:53;14.87;;;4.53;;
16063;SDS011;8136;53.172;8.256;2024-03-23T06:24:21;11.77;;;3.50;;
16063;SDS011;8136;53.172;8.256;2024-03-23T06:26:48;11.83;;;4.00;;
16063;SDS011;8136;53.172;8.256;2024-03-23T06:29:16;14.53;;;4.17;;
16063;SDS011;8136;53.172;8.256;2024-03-23T06:31:42;14.77;;;3.57;;
16063;SDS011;8136;53.172;8.256;2024-03-23T06:34:08;13.53;;;4.00;;
16063;SDS011;8136;53.172;8.256;2024-03-23T06:36:37;18.87;;;4.27;;
16063;SDS011;8136;53.172;8.256;2024-03-23T06:39:03;14.63;;;4.70;;
16063;SDS011;8136;53.172;8.256;2024-03-23T06:41:30;17.17;;;3.57;;
16063;SDS011;8136;53.172;8.256;2024-03-23T06:43:57;10.33;;;3.93;;
16063;SDS011;8136;53.172;8.256;2024-03-23T06:46:24;13.43;;;4.23;;
16063;SDS011;8136;53.172;8.256;2024-03-23T06:48:50;15.73;;;4.00;;
16063;SDS011;8136;53.172;8.256;2024-03-23T06:51:17;9.93;;;3.43;;
16063;SDS011;8136;53.172;8.256;2024-03-23T06:53:43;12.77;;;3.80;;
16063;SDS011;8136;53.172;8.256;2024-03-23T06:56:10;13.87;;;3.30;;
16063;SDS011;8136;53.172;8.256;2024-03-23T06:58:36;17.03;;;3.27;;
16063;SDS011;8136;53.172;8.256;2024-03-23T07:01:04;15.57;;;3.97;;
16063;SDS011;8136;53.172;8.256;2024-03-23T07:03:30;9.13;;;3.20;;
16063;SDS011;8136;53.172;8.256;2024-03-23T07:05:57;15.40;;;3.67;;
16063;SDS011;8136;53.172;8.256;2024-03-23T07:08:23;8.40;;;3.33;;
16063;SDS011;8136;53.172;8.256;2024-03-23T07:10:51;15.33;;;3.57;;
16063;SDS011;8136;53.172;8.256;2024-03-23T07:13:17;10.30;;;3.47;;
16063;SDS011;8136;53.172;8.256;2024-03-23T07:15:50;15.33;;;3.77;;
16063;SDS011;8136;53.172;8.256;2024-03-23T07:18:18;15.10;;;4.20;;
16063;SDS011;8136;53.172;8.256;2024-03-23T07:20:51;12.37;;;3.57;;
16063;SDS011;8136;53.172;8.256;2024-03-23T07:23:18;14.60;;;4.00;;
16063;SDS011;8136;53.172;8.256;2024-03-23T07:25:45;9.87;;;3.00;;
16063;SDS011;8136;53.172;8.256;2024-03-23T07:28:20;18.03;;;3.93;;
16063;SDS011;8136;53.172;8.256;2024-03-23T07:30:47;14.70;;;3.87;;
16063;SDS011;8136;53.172;8.256;2024-03-23T07:33:13;11.60;;;3.27;;
16063;SDS011;8136;53.172;8.256;2024-03-23T07:35:41;13.73;;;3.57;;
16063;SDS011;8136;53.172;8.256;2024-03-23T07:38:07;12.23;;;4.30;;
16063;SDS011;8136;53.172;8.256;2024-03-23T07:40:34;14.60;;;3.30;;
16063;SDS011;8136;53.172;8.256;2024-03-23T07:43:00;9.23;;;3.03;;
16063;SDS011;8136;53.172;8.256;2024-03-23T07:45:27;10.53;;;3.00;;
16063;SDS011;8136;53.172;8.256;2024-03-23T07:47:53;9.57;;;3.50;;
16063;SDS011;8136;53.172;8.256;2024-03-23T07:50:19;7.33;;;2.57;;
16063;SDS011;8136;53.172;8.256;2024-03-23T07:52:47;13.50;;;3.40;;
16063;SDS011;8136;53.172;8.256;2024-03-23T07:55:14;11.70;;;3.00;;
16063;SDS011;8136;53.172;8.256;2024-03-23T07:57:40;10.53;;;2.47;;
16063;SDS011;8136;53.172;8.256;2024-03-23T08:00:07;13.13;;;2.90;;
16063;SDS011;8136;53.172;8.256;2024-03-23T08:02:33;10.00;;;3.23;;
16063;SDS011;8136;53.172;8.256;2024-03-23T08:05:00;10.53;;;2.73;;
16063;SDS011;8136;53.172;8.256;2024-03-23T08:07:27;7.17;;;2.20;;
16063;SDS011;8136;53.172;8.256;2024-03-23T08:09:58;8.07;;;2.40;;
16063;SDS011;8136;53.172;8.256;2024-03-23T08:12:25;7.67;;;2.33;;
16063;SDS011;8136;53.172;8.256;2024-03-23T08:14:51;7.60;;;2.37;;
16063;SDS011;8136;53.172;8.256;2024-03-23T08:17:18;7.33;;;2.13;;
16063;SDS011;8136;53.172;8.256;2024-03-23T08:19:43;8.17;;;2.60;;
16063;SDS011;8136;53.172;8.256;2024-03-23T08:22:11;6.30;;;1.77;;
16063;SDS011;8136;53.172;8.256;2024-03-23T08:24:37;9.77;;;2.47;;
16063;SDS011;8136;53.172;8.256;2024-03-23T08:27:05;16.53;;;2.50;;
16063;SDS011;8136;53.172;8.256;2024-03-23T08:29:31;7.93;;;2.70;;
16063;SDS011;8136;53.172;8.256;2024-03-23T08:31:58;10.97;;;2.57;;
16063;SDS011;8136;53.172;8.256;2024-03-23T08:34:26;12.10;;;2.30;;
16063;SDS011;8136;53.172;8.256;2024-03-23T08:36:53;4.77;;;2.10;;
16063;SDS011;8136;53.172;8.256;2024-03-23T08:39:28;10.50;;;1.90;;
16063;SDS011;8136;53.172;8.256;2024-03-23T08:41:55;10.40;;;2.20;;
16063;SDS011;8136;53.172;8.256;2024-03-23T08:44:22;8.33;;;2.07;;
16063;SDS011;8136;53.172;8.256;2024-03-23T08:46:49;4.07;;;2.10;;
16063;SDS011;8136;53.172;8.256;2024-03-23T08:49:15;10.53;;;2.33;;
16063;SDS011;8136;53.172;8.256;2024-03-23T08:51:43;8.03;;;2.50;;
16063;SDS011;8136;53.172;8.256;2024-03-23T08:54:09;6.87;;;2.27;;
16063;SDS011;8136;53.172;8.256;2024-03-23T08:56:36;7.33;;;2.33;;
16063;SDS011;8136;53.172;8.256;2024-03-23T08:59:02;11.37;;;2.43;;
16063;SDS011;8136;53.172;8.256;2024-03-23T09:01:31;7.30;;;1.90;;
16063;SDS011;8136;53.172;8.256;2024-03-23T09:03:57;5.20;;;1.87;;
16063;SDS011;8136;53.172;8.256;2024-03-23T09:06:24;5.57;;;2.17;;
16063;SDS011;8136;53.172;8.256;2024-03-23T09:08:50;8.53;;;2.13;;
16063;SDS011;8136;53.172;8.256;2024-03-23T09:11:17;6.87;;;2.27;;
16063;SDS011;8136;53.172;8.256;2024-03-23T09:13:43;4.23;;;1.90;;
16063;SDS011;8136;53.172;8.256;2024-03-23T09:16:09;3.07;;;1.73;;
16063;SDS011;8136;53.172;8.256;2024-03-23T09:18:37;10.87;;;2.00;;
16063;SDS011;8136;53.172;8.256;2024-03-23T09:21:04;6.17;;;1.97;;
16063;SDS011;8136;53.172;8.256;2024-03-23T09:23:37;5.17;;;1.90;;
16063;SDS011;8136;53.172;8.256;2024-03-23T09:26:04;6.57;;;2.17;;
16063;SDS011;8136;53.172;8.256;2024-03-23T09:28:32;5.67;;;1.67;;
16063;SDS011;8136;53.172;8.256;2024-03-23T09:31:02;7.03;;;2.00;;
16063;SDS011;8136;53.172;8.256;2024-03-23T09:33:28;7.77;;;1.97;;
16063;SDS011;8136;53.172;8.256;2024-03-23T09:35:56;7.10;;;1.90;;
16063;SDS011;8136;53.172;8.256;2024-03-23T09:38:22;5.83;;;1.67;;
16063;SDS011;8136;53.172;8.256;2024-03-23T09:40:50;4.13;;;1.73;;
16063;SDS011;8136;53.172;8.256;2024-03-23T09:43:42;5.60;;;1.97;;
16063;SDS011;8136;53.172;8.256;2024-03-23T09:46:18;4.37;;;1.93;;
16063;SDS011;8136;53.172;8.256;2024-03-23T09:48:46;6.50;;;2.00;;
16063;SDS011;8136;53.172;8.256;2024-03-23T09:54:33;7.13;;;1.73;;
16063;SDS011;8136;53.172;8.256;2024-03-23T09:57:00;5.37;;;1.60;;
16063;SDS011;8136;53.172;8.256;2024-03-23T09:59:26;6.07;;;1.70;;
16063;SDS011;8136;53.172;8.256;2024-03-23T10:01:53;3.37;;;1.70;;
16063;SDS011;8136;53.172;8.256;2024-03-23T10:04:38;4.43;;;2.30;;
16063;SDS011;8136;53.172;8.256;2024-03-23T10:07:15;4.50;;;1.47;;
16063;SDS011;8136;53.172;8.256;2024-03-23T10:56:22;6.43;;;1.80;;
16063;SDS011;8136;53.172;8.256;2024-03-23T10:59:02;2.40;;;1.30;;
16063;SDS011;8136;53.172;8.256;2024-03-23T11:01:33;7.70;;;2.10;;
16063;SDS011;8136;53.172;8.256;2024-03-23T11:04:29;3.40;;;1.73;;
16063;SDS011;8136;53.172;8.256;2024-03-23T11:07:31;4.97;;;1.60;;
16063;SDS011;8136;53.172;8.256;2024-03-23T11:10:24;5.50;;;1.83;;
16063;SDS011;8136;53.172;8.256;2024-03-23T11:20:10;4.90;;;1.50;;
16063;SDS011;8136;53.172;8.256;2024-03-23T11:23:07;2.53;;;1.33;;
16063;SDS011;8136;53.172;8.256;2024-03-23T11:26:07;3.47;;;1.40;;
16063;SDS011;8136;53.172;8.256;2024-03-23T11:29:22;5.87;;;1.70;;
16063;SDS011;8136;53.172;8.256;2024-03-23T12:16:10;2.87;;;0.90;;
16063;SDS011;8136;53.172;8.256;2024-03-23T12:18:38;1.30;;;0.70;;
16063;SDS011;8136;53.172;8.256;2024-03-23T12:21:05;1.67;;;0.90;;
16063;SDS011;8136;53.172;8.256;2024-03-23T12:23:32;2.90;;;1.17;;
16063;SDS011;8136;53.172;8.256;2024-03-23T12:25:59;6.40;;;1.10;;
16063;SDS011;8136;53.172;8.256;2024-03-23T12:28:26;3.17;;;1.00;;
16063;SDS011;8136;53.172;8.256;2024-03-23T12:30:52;1.90;;;1.23;;
16063;SDS011;8136;53.172;8.256;2024-03-23T12:33:21;3.10;;;1.07;;
16063;SDS011;8136;53.172;8.256;2024-03-23T12:35:47;2.03;;;0.90;;
16063;SDS011;8136;53.172;8.256;2024-03-23T12:38:14;2.40;;;0.90;;
16063;SDS011;8136;53.172;8.256;2024-03-23T12:40:40;3.40;;;1.00;;
16063;SDS011;8136;53.172;8.256;2024-03-23T12:43:07;2.53;;;1.00;;
16063;SDS011;8136;53.172;8.256;2024-03-23T12:45:33;3.87;;;1.50;;
16063;SDS011;8136;53.172;8.256;2024-03-23T12:48:00;3.17;;;1.47;;
16063;SDS011;8136;53.172;8.256;2024-03-23T12:50:27;2.77;;;1.13;;
16063;SDS011;8136;53.172;8.256;2024-03-23T12:52:54;2.93;;;1.20;;
16063;SDS011;8136;53.172;8.256;2024-03-23T12:55:20;2.93;;;1.10;;
16063;SDS011;8136;53.172;8.256;2024-03-23T12:57:46;1.67;;;0.80;;
16063;SDS011;8136;53.172;8.256;2024-03-23T13:00:13;3.20;;;1.00;;
16063;SDS011;8136;53.172;8.256;2024-03-23T13:02:42;2.47;;;0.80;;
16063;SDS011;8136;53.172;8.256;2024-03-23T13:05:08;1.47;;;0.80;;
16063;SDS011;8136;53.172;8.256;2024-03-23T13:07:36;1.43;;;0.60;;
16063;SDS011;8136;53.172;8.256;2024-03-23T13:10:03;3.03;;;1.33;;
16063;SDS011;8136;53.172;8.256;2024-03-23T13:12:31;1.20;;;0.80;;
16063;SDS011;8136;53.172;8.256;2024-03-23T13:14:57;4.17;;;0.80;;
16063;SDS011;8136;53.172;8.256;2024-03-23T13:17:24;2.20;;;0.90;;
16063;SDS011;8136;53.172;8.256;2024-03-23T13:19:51;5.03;;;1.53;;
16063;SDS011;8136;53.172;8.256;2024-03-23T13:22:18;4.23;;;1.27;;
16063;SDS011;8136;53.172;8.256;2024-03-23T13:24:46;2.20;;;0.70;;
16063;SDS011;8136;53.172;8.256;2024-03-23T13:27:12;1.93;;;0.83;;
16063;SDS011;8136;53.172;8.256;2024-03-23T13:29:38;1.33;;;0.87;;
16063;SDS011;8136;53.172;8.256;2024-03-23T13:32:06;1.73;;;0.73;;
16063;SDS011;8136;53.172;8.256;2024-03-23T13:34:32;1.70;;;0.90;;
16063;SDS011;8136;53.172;8.256;2024-03-23T13:37:00;2.53;;;0.70;;
16063;SDS011;8136;53.172;8.256;2024-03-23T13:39:26;1.90;;;1.07;;
16063;SDS011;8136;53.172;8.256;2024-03-23T13:41:54;2.37;;;0.83;;
16063;SDS011;8136;53.172;8.256;2024-03-23T13:44:21;2.57;;;0.90;;
16063;SDS011;8136;53.172;8.256;2024-03-23T13:46:48;2.17;;;0.90;;
16063;SDS011;8136;53.172;8.256;2024-03-23T13:49:19;1.80;;;0.93;;
16063;SDS011;8136;53.172;8.256;2024-03-23T13:51:52;1.90;;;1.13;;
16063;SDS011;8136;53.172;8.256;2024-03-23T13:54:19;2.43;;;0.70;;
16063;SDS011;8136;53.172;8.256;2024-03-23T13:56:47;2.67;;;1.03;;
16063;SDS011;8136;53.172;8.256;2024-03-23T13:59:15;3.97;;;1.00;;
16063;SDS011;8136;53.172;8.256;2024-03-23T14:01:42;3.97;;;1.17;;
16063;SDS011;8136;53.172;8.256;2024-03-23T14:04:08;4.20;;;1.00;;
16063;SDS011;8136;53.172;8.256;2024-03-23T14:06:36;3.93;;;1.00;;
16063;SDS011;8136;53.172;8.256;2024-03-23T14:09:01;3.67;;;1.50;;
16063;SDS011;8136;53.172;8.256;2024-03-23T14:11:29;3.23;;;0.93;;
16063;SDS011;8136;53.172;8.256;2024-03-23T14:13:55;1.93;;;1.00;;
16063;SDS011;8136;53.172;8.256;2024-03-23T14:16:24;2.97;;;0.90;;
16063;SDS011;8136;53.172;8.256;2024-03-23T14:18:49;2.33;;;0.83;;
16063;SDS011;8136;53.172;8.256;2024-03-23T14:21:17;2.30;;;0.70;;
16063;SDS011;8136;53.172;8.256;2024-03-23T14:23:44;1.63;;;1.00;;
16063;SDS011;8136;53.172;8.256;2024-03-23T14:26:10;2.80;;;0.93;;
16063;SDS011;8136;53.172;8.256;2024-03-23T14:28:36;5.80;;;1.03;;
16063;SDS011;8136;53.172;8.256;2024-03-23T14:31:03;2.43;;;0.70;;
16063;SDS011;8136;53.172;8.256;2024-03-23T14:33:36;4.30;;;1.10;;
16063;SDS011;8136;53.172;8.256;2024-03-23T14:36:06;4.20;;;1.10;;
16063;SDS011;8136;53.172;8.256;2024-03-23T14:38:32;2.50;;;1.00;;
16063;SDS011;8136;53.172;8.256;2024-03-23T14:40:59;2.40;;;1.33;;
16063;SDS011;8136;53.172;8.256;2024-03-23T14:43:26;3.30;;;1.03;;
16063;SDS011;8136;53.172;8.256;2024-03-23T14:46:08;4.73;;;1.00;;
16063;SDS011;8136;53.172;8.256;2024-03-23T14:48:37;2.77;;;0.97;;
16063;SDS011;8136;53.172;8.256;2024-03-23T14:51:04;3.90;;;1.13;;
16063;SDS011;8136;53.172;8.256;2024-03-23T14:53:30;2.37;;;1.10;;
16063;SDS011;8136;53.172;8.256;2024-03-23T14:55:57;1.53;;;0.80;;
16063;SDS011;8136;53.172;8.256;2024-03-23T14:58:24;1.93;;;0.70;;
16063;SDS011;8136;53.172;8.256;2024-03-23T15:00:51;2.57;;;0.90;;
16063;SDS011;8136;53.172;8.256;2024-03-23T15:03:17;2.57;;;0.90;;
16063;SDS011;8136;53.172;8.256;2024-03-23T15:05:53;2.70;;;1.10;;
16063;SDS011;8136;53.172;8.256;2024-03-23T15:08:19;2.80;;;0.90;;
16063;SDS011;8136;53.172;8.256;2024-03-23T15:10:46;3.20;;;1.20;;
16063;SDS011;8136;53.172;8.256;2024-03-23T15:13:12;3.13;;;1.10;;
16063;SDS011;8136;53.172;8.256;2024-03-23T15:15:39;4.50;;;0.97;;
16063;SDS011;8136;53.172;8.256;2024-03-23T15:18:08;4.40;;;1.13;;
16063;SDS011;8136;53.172;8.256;2024-03-23T15:20:37;5.27;;;1.10;;
16063;SDS011;8136;53.172;8.256;2024-03-23T15:23:05;1.77;;;0.80;;
16063;SDS011;8136;53.172;8.256;2024-03-23T15:25:32;2.67;;;1.00;;
16063;SDS011;8136;53.172;8.256;2024-03-23T15:27:58;1.93;;;1.10;;
16063;SDS011;8136;53.172;8.256;2024-03-23T15:30:25;3.13;;;0.93;;
16063;SDS011;8136;53.172;8.256;2024-03-23T15:32:51;5.67;;;1.33;;
16063;SDS011;8136;53.172;8.256;2024-03-23T15:35:18;4.40;;;1.10;;
16063;SDS011;8136;53.172;8.256;2024-03-23T15:37:44;6.13;;;1.20;;
16063;SDS011;8136;53.172;8.256;2024-03-23T15:40:13;4.93;;;1.20;;
16063;SDS011;8136;53.172;8.256;2024-03-23T15:42:40;4.43;;;1.60;;
16063;SDS011;8136;53.172;8.256;2024-03-23T15:45:07;4.40;;;1.53;;
16063;SDS011;8136;53.172;8.256;2024-03-23T15:47:34;2.53;;;1.20;;
16063;SDS011;8136;53.172;8.256;2024-03-23T15:50:02;4.83;;;1.53;;
16063;SDS011;8136;53.172;8.256;2024-03-23T15:52:33;4.60;;;1.53;;
16063;SDS011;8136;53.172;8.256;2024-03-23T15:55:00;4.50;;;1.43;;
16063;SDS011;8136;53.172;8.256;2024-03-23T15:57:27;5.43;;;1.37;;
16063;SDS011;8136;53.172;8.256;2024-03-23T15:59:54;4.87;;;1.40;;
16063;SDS011;8136;53.172;8.256;2024-03-23T16:02:20;5.03;;;1.40;;
16063;SDS011;8136;53.172;8.256;2024-03-23T16:04:47;10.00;;;1.50;;
16063;SDS011;8136;53.172;8.256;2024-03-23T16:07:13;6.23;;;1.50;;
16063;SDS011;8136;53.172;8.256;2024-03-23T16:09:40;4.23;;;1.50;;
16063;SDS011;8136;53.172;8.256;2024-03-23T16:12:05;4.20;;;1.70;;
16063;SDS011;8136;53.172;8.256;2024-03-23T16:14:34;4.13;;;1.30;;
16063;SDS011;8136;53.172;8.256;2024-03-23T16:17:00;3.67;;;1.23;;
16063;SDS011;8136;53.172;8.256;2024-03-23T16:19:27;6.20;;;1.23;;
16063;SDS011;8136;53.172;8.256;2024-03-23T16:21:52;1.47;;;0.80;;
16063;SDS011;8136;53.172;8.256;2024-03-23T16:24:20;3.73;;;1.10;;
16063;SDS011;8136;53.172;8.256;2024-03-23T16:26:46;5.53;;;1.40;;
16063;SDS011;8136;53.172;8.256;2024-03-23T16:29:14;6.57;;;1.30;;
16063;SDS011;8136;53.172;8.256;2024-03-23T16:31:41;7.20;;;1.43;;
16063;SDS011;8136;53.172;8.256;2024-03-23T16:34:08;8.30;;;1.73;;
16063;SDS011;8136;53.172;8.256;2024-03-23T16:36:34;5.37;;;1.80;;
16063;SDS011;8136;53.172;8.256;2024-03-23T16:39:01;5.03;;;1.40;;
16063;SDS011;8136;53.172;8.256;2024-03-23T16:41:27;2.93;;;1.07;;
16063;SDS011;8136;53.172;8.256;2024-03-23T16:43:54;4.07;;;1.43;;
16063;SDS011;8136;53.172;8.256;2024-03-23T16:46:20;11.00;;;1.90;;
16063;SDS011;8136;53.172;8.256;2024-03-23T16:48:49;7.87;;;1.77;;
16063;SDS011;8136;53.172;8.256;2024-03-23T16:51:15;5.87;;;1.60;;
16063;SDS011;8136;53.172;8.256;2024-03-23T16:53:42;4.10;;;1.60;;
16063;SDS011;8136;53.172;8.256;2024-03-23T16:56:10;5.80;;;1.83;;
16063;SDS011;8136;53.172;8.256;2024-03-23T16:58:38;5.50;;;1.80;;
16063;SDS011;8136;53.172;8.256;2024-03-23T17:01:06;7.90;;;1.67;;
16063;SDS011;8136;53.172;8.256;2024-03-23T17:03:35;6.90;;;1.90;;
16063;SDS011;8136;53.172;8.256;2024-03-23T17:06:04;2.90;;;1.30;;
16063;SDS011;8136;53.172;8.256;2024-03-23T17:08:30;4.60;;;1.70;;
16063;SDS011;8136;53.172;8.256;2024-03-23T17:10:57;3.83;;;1.70;;
16063;SDS011;8136;53.172;8.256;2024-03-23T17:16:04;4.13;;;1.83;;
16063;SDS011;8136;53.172;8.256;2024-03-23T17:18:32;8.13;;;1.80;;
16063;SDS011;8136;53.172;8.256;2024-03-23T17:20:58;8.13;;;2.17;;
16063;SDS011;8136;53.172;8.256;2024-03-23T17:23:27;6.53;;;1.97;;
16063;SDS011;8136;53.172;8.256;2024-03-23T17:25:53;4.53;;;1.40;;
16063;SDS011;8136;53.172;8.256;2024-03-23T17:28:20;7.10;;;1.67;;
16063;SDS011;8136;53.172;8.256;2024-03-23T17:30:46;7.07;;;1.87;;
16063;SDS011;8136;53.172;8.256;2024-03-23T17:33:14;7.33;;;2.30;;
16063;SDS011;8136;53.172;8.256;2024-03-23T17:35:40;7.00;;;2.17;;
16063;SDS011;8136;53.172;8.256;2024-03-23T17:38:07;8.93;;;2.30;;
16063;SDS011;8136;53.172;8.256;2024-03-23T17:40:34;6.70;;;2.00;;